sensor_id;sensor_type;location;lat;lon;timestamp;P1;durP1;ratioP1;P2;durP2;ratioP2
46589;SDS011;32313;48.722;9.362;2023-05-10T00:00:17;9.50;;;7.17;;
46589;SDS011;32313;48.722;9.362;2023-05-10T00:02:43;7.00;;;6.40;;
46589;SDS011;32313;48.722;9.362;2023-05-10T00:05:09;7.30;;;6.60;;
46589;SDS011;32313;48.722;9.362;2023-05-10T00:07:34;7.67;;;6.97;;
46589;SDS011;32313;48.722;9.362;2023-05-10T00:10:00;9.30;;;8.33;;
46589;SDS011;32313;48.722;9.362;2023-05-10T00:12:26;11.53;;;8.90;;
46589;SDS011;32313;48.722;9.362;2023-05-10T00:14:51;8.67;;;7.37;;
46589;SDS011;32313;48.722;9.362;2023-05-10T00:17:17;9.60;;;8.40;;
46589;SDS011;32313;48.722;9.362;2023-05-10T00:19:42;7.93;;;7.17;;
46589;SDS011;32313;48.722;9.362;2023-05-10T00:22:08;7.83;;;6.83;;
46589;SDS011;32313;48.722;9.362;2023-05-10T00:24:34;9.43;;;8.03;;
46589;SDS011;32313;48.722;9.362;2023-05-10T00:26:59;8.57;;;7.77;;
46589;SDS011;32313;48.722;9.362;2023-05-10T00:29:25;8.07;;;7.37;;
46589;SDS011;32313;48.722;9.362;2023-05-10T00:31:53;7.90;;;7.10;;
46589;SDS011;32313;48.722;9.362;2023-05-10T00:34:18;7.17;;;6.43;;
46589;SDS011;32313;48.722;9.362;2023-05-10T00:36:44;4.97;;;4.47;;
46589;SDS011;32313;48.722;9.362;2023-05-10T00:39:09;6.40;;;5.83;;
46589;SDS011;32313;48.722;9.362;2023-05-10T00:41:35;5.47;;;5.07;;
46589;SDS011;32313;48.722;9.362;2023-05-10T00:44:03;5.07;;;4.57;;
46589;SDS011;32313;48.722;9.362;2023-05-10T00:46:29;3.97;;;3.60;;
46589;SDS011;32313;48.722;9.362;2023-05-10T00:48:55;3.87;;;3.57;;
46589;SDS011;32313;48.722;9.362;2023-05-10T00:51:21;3.23;;;3.00;;
46589;SDS011;32313;48.722;9.362;2023-05-10T00:53:47;3.20;;;3.00;;
46589;SDS011;32313;48.722;9.362;2023-05-10T00:56:14;3.30;;;2.73;;
46589;SDS011;32313;48.722;9.362;2023-05-10T00:58:41;3.20;;;2.90;;
46589;SDS011;32313;48.722;9.362;2023-05-10T01:01:07;2.70;;;2.50;;
46589;SDS011;32313;48.722;9.362;2023-05-10T01:03:34;3.07;;;2.77;;
46589;SDS011;32313;48.722;9.362;2023-05-10T01:06:01;2.67;;;2.47;;
46589;SDS011;32313;48.722;9.362;2023-05-10T01:08:26;3.40;;;2.40;;
46589;SDS011;32313;48.722;9.362;2023-05-10T01:10:53;2.77;;;2.30;;
46589;SDS011;32313;48.722;9.362;2023-05-10T01:13:31;3.00;;;2.57;;
46589;SDS011;32313;48.722;9.362;2023-05-10T01:16:00;2.23;;;2.10;;
46589;SDS011;32313;48.722;9.362;2023-05-10T01:18:28;2.73;;;2.50;;
46589;SDS011;32313;48.722;9.362;2023-05-10T01:21:43;2.30;;;2.20;;
46589;SDS011;32313;48.722;9.362;2023-05-10T01:27:25;2.70;;;2.50;;
46589;SDS011;32313;48.722;9.362;2023-05-10T01:30:35;2.83;;;2.00;;
46589;SDS011;32313;48.722;9.362;2023-05-10T01:41:18;2.60;;;2.40;;
46589;SDS011;32313;48.722;9.362;2023-05-10T01:44:02;2.77;;;2.60;;
46589;SDS011;32313;48.722;9.362;2023-05-10T01:46:40;4.43;;;2.63;;
46589;SDS011;32313;48.722;9.362;2023-05-10T01:49:10;3.03;;;2.70;;
46589;SDS011;32313;48.722;9.362;2023-05-10T01:51:47;2.60;;;2.40;;
46589;SDS011;32313;48.722;9.362;2023-05-10T01:54:19;2.90;;;2.70;;
46589;SDS011;32313;48.722;9.362;2023-05-10T01:56:47;4.07;;;2.87;;
46589;SDS011;32313;48.722;9.362;2023-05-10T01:59:20;2.70;;;2.53;;
46589;SDS011;32313;48.722;9.362;2023-05-10T02:01:47;5.67;;;3.10;;
46589;SDS011;32313;48.722;9.362;2023-05-10T02:04:16;3.90;;;3.20;;
46589;SDS011;32313;48.722;9.362;2023-05-10T02:06:44;3.00;;;2.70;;
46589;SDS011;32313;48.722;9.362;2023-05-10T02:09:12;2.90;;;2.70;;
46589;SDS011;32313;48.722;9.362;2023-05-10T02:11:39;3.10;;;2.80;;
46589;SDS011;32313;48.722;9.362;2023-05-10T02:14:07;2.67;;;2.50;;
46589;SDS011;32313;48.722;9.362;2023-05-10T02:16:35;2.93;;;2.63;;
46589;SDS011;32313;48.722;9.362;2023-05-10T02:19:02;2.90;;;2.70;;
46589;SDS011;32313;48.722;9.362;2023-05-10T02:21:28;3.20;;;3.00;;
46589;SDS011;32313;48.722;9.362;2023-05-10T02:23:55;3.87;;;3.10;;
46589;SDS011;32313;48.722;9.362;2023-05-10T02:26:23;3.70;;;3.37;;
46589;SDS011;32313;48.722;9.362;2023-05-10T02:28:50;7.17;;;2.80;;
46589;SDS011;32313;48.722;9.362;2023-05-10T02:31:18;3.17;;;2.97;;
46589;SDS011;32313;48.722;9.362;2023-05-10T02:33:45;3.03;;;2.80;;
46589;SDS011;32313;48.722;9.362;2023-05-10T02:36:12;3.10;;;2.90;;
46589;SDS011;32313;48.722;9.362;2023-05-10T02:38:39;3.17;;;2.67;;
46589;SDS011;32313;48.722;9.362;2023-05-10T02:41:06;3.10;;;2.90;;
46589;SDS011;32313;48.722;9.362;2023-05-10T02:43:33;2.73;;;2.53;;
46589;SDS011;32313;48.722;9.362;2023-05-10T02:46:00;5.13;;;3.00;;
46589;SDS011;32313;48.722;9.362;2023-05-10T02:48:26;4.00;;;2.90;;
46589;SDS011;32313;48.722;9.362;2023-05-10T02:50:52;3.20;;;2.93;;
46589;SDS011;32313;48.722;9.362;2023-05-10T02:53:22;3.20;;;2.90;;
46589;SDS011;32313;48.722;9.362;2023-05-10T02:55:55;3.33;;;3.03;;
46589;SDS011;32313;48.722;9.362;2023-05-10T02:58:24;5.17;;;3.00;;
46589;SDS011;32313;48.722;9.362;2023-05-10T03:00:50;3.43;;;3.20;;
46589;SDS011;32313;48.722;9.362;2023-05-10T03:03:16;3.53;;;3.00;;
46589;SDS011;32313;48.722;9.362;2023-05-10T03:05:41;3.23;;;3.07;;
46589;SDS011;32313;48.722;9.362;2023-05-10T03:08:07;3.13;;;2.90;;
46589;SDS011;32313;48.722;9.362;2023-05-10T03:10:33;3.13;;;2.93;;
46589;SDS011;32313;48.722;9.362;2023-05-10T03:15:57;3.30;;;3.00;;
46589;SDS011;32313;48.722;9.362;2023-05-10T03:18:34;3.20;;;3.00;;
46589;SDS011;32313;48.722;9.362;2023-05-10T03:21:15;3.83;;;3.50;;
46589;SDS011;32313;48.722;9.362;2023-05-10T03:23:47;3.97;;;3.30;;
46589;SDS011;32313;48.722;9.362;2023-05-10T03:26:34;3.50;;;3.20;;
46589;SDS011;32313;48.722;9.362;2023-05-10T03:29:07;3.50;;;3.20;;
46589;SDS011;32313;48.722;9.362;2023-05-10T03:31:34;3.70;;;3.40;;
46589;SDS011;32313;48.722;9.362;2023-05-10T03:34:00;3.83;;;3.17;;
46589;SDS011;32313;48.722;9.362;2023-05-10T03:36:26;4.10;;;3.20;;
46589;SDS011;32313;48.722;9.362;2023-05-10T03:38:53;3.50;;;3.10;;
46589;SDS011;32313;48.722;9.362;2023-05-10T03:41:19;4.10;;;3.70;;
46589;SDS011;32313;48.722;9.362;2023-05-10T03:43:46;3.47;;;3.20;;
46589;SDS011;32313;48.722;9.362;2023-05-10T03:46:12;10.00;;;3.70;;
46589;SDS011;32313;48.722;9.362;2023-05-10T03:48:38;3.73;;;3.43;;
46589;SDS011;32313;48.722;9.362;2023-05-10T03:51:04;3.77;;;3.47;;
46589;SDS011;32313;48.722;9.362;2023-05-10T03:53:30;3.70;;;3.40;;
46589;SDS011;32313;48.722;9.362;2023-05-10T03:55:55;4.03;;;3.73;;
46589;SDS011;32313;48.722;9.362;2023-05-10T03:58:21;4.33;;;3.93;;
46589;SDS011;32313;48.722;9.362;2023-05-10T04:00:47;3.60;;;3.30;;
46589;SDS011;32313;48.722;9.362;2023-05-10T04:03:13;3.77;;;3.57;;
46589;SDS011;32313;48.722;9.362;2023-05-10T04:05:39;4.07;;;3.63;;
46589;SDS011;32313;48.722;9.362;2023-05-10T04:08:05;3.50;;;3.30;;
46589;SDS011;32313;48.722;9.362;2023-05-10T04:10:31;3.73;;;3.40;;
46589;SDS011;32313;48.722;9.362;2023-05-10T04:12:57;4.00;;;3.50;;
46589;SDS011;32313;48.722;9.362;2023-05-10T04:15:24;3.73;;;3.37;;
46589;SDS011;32313;48.722;9.362;2023-05-10T04:17:49;4.13;;;3.80;;
46589;SDS011;32313;48.722;9.362;2023-05-10T04:20:16;3.90;;;3.50;;
46589;SDS011;32313;48.722;9.362;2023-05-10T04:22:41;3.70;;;3.30;;
46589;SDS011;32313;48.722;9.362;2023-05-10T04:25:08;4.97;;;4.23;;
46589;SDS011;32313;48.722;9.362;2023-05-10T04:27:34;4.23;;;3.93;;
46589;SDS011;32313;48.722;9.362;2023-05-10T04:29:59;4.00;;;3.37;;
46589;SDS011;32313;48.722;9.362;2023-05-10T04:32:25;6.70;;;4.00;;
46589;SDS011;32313;48.722;9.362;2023-05-10T04:34:50;4.73;;;4.33;;
46589;SDS011;32313;48.722;9.362;2023-05-10T04:37:16;4.53;;;4.13;;
46589;SDS011;32313;48.722;9.362;2023-05-10T04:39:43;4.70;;;4.30;;
46589;SDS011;32313;48.722;9.362;2023-05-10T04:42:08;5.33;;;4.70;;
46589;SDS011;32313;48.722;9.362;2023-05-10T04:44:34;5.10;;;4.70;;
46589;SDS011;32313;48.722;9.362;2023-05-10T04:47:01;6.00;;;5.17;;
46589;SDS011;32313;48.722;9.362;2023-05-10T04:49:28;4.73;;;4.40;;
46589;SDS011;32313;48.722;9.362;2023-05-10T04:51:54;4.83;;;4.43;;
46589;SDS011;32313;48.722;9.362;2023-05-10T04:54:20;5.47;;;4.97;;
46589;SDS011;32313;48.722;9.362;2023-05-10T04:56:46;6.60;;;5.00;;
46589;SDS011;32313;48.722;9.362;2023-05-10T04:59:12;6.13;;;4.50;;
46589;SDS011;32313;48.722;9.362;2023-05-10T05:01:37;7.00;;;5.20;;
46589;SDS011;32313;48.722;9.362;2023-05-10T05:04:03;5.40;;;4.90;;
46589;SDS011;32313;48.722;9.362;2023-05-10T05:06:29;6.53;;;5.30;;
46589;SDS011;32313;48.722;9.362;2023-05-10T05:08:54;5.13;;;4.73;;
46589;SDS011;32313;48.722;9.362;2023-05-10T05:11:20;6.20;;;4.00;;
46589;SDS011;32313;48.722;9.362;2023-05-10T05:13:47;5.17;;;4.37;;
46589;SDS011;32313;48.722;9.362;2023-05-10T05:16:12;4.63;;;4.20;;
46589;SDS011;32313;48.722;9.362;2023-05-10T05:18:38;4.60;;;4.20;;
46589;SDS011;32313;48.722;9.362;2023-05-10T05:21:13;4.80;;;4.40;;
46589;SDS011;32313;48.722;9.362;2023-05-10T05:23:42;5.07;;;4.57;;
46589;SDS011;32313;48.722;9.362;2023-05-10T05:26:08;4.03;;;3.73;;
46589;SDS011;32313;48.722;9.362;2023-05-10T05:28:34;4.20;;;3.73;;
46589;SDS011;32313;48.722;9.362;2023-05-10T05:31:05;4.10;;;3.80;;
46589;SDS011;32313;48.722;9.362;2023-05-10T05:33:35;4.83;;;3.80;;
46589;SDS011;32313;48.722;9.362;2023-05-10T05:36:02;3.53;;;3.23;;
46589;SDS011;32313;48.722;9.362;2023-05-10T05:38:29;3.97;;;3.60;;
46589;SDS011;32313;48.722;9.362;2023-05-10T05:40:54;3.57;;;3.27;;
46589;SDS011;32313;48.722;9.362;2023-05-10T05:43:20;3.43;;;3.13;;
46589;SDS011;32313;48.722;9.362;2023-05-10T05:45:45;4.63;;;3.70;;
46589;SDS011;32313;48.722;9.362;2023-05-10T05:48:11;3.77;;;3.43;;
46589;SDS011;32313;48.722;9.362;2023-05-10T05:50:37;3.10;;;2.90;;
46589;SDS011;32313;48.722;9.362;2023-05-10T05:53:02;3.93;;;3.27;;
46589;SDS011;32313;48.722;9.362;2023-05-10T05:55:29;2.70;;;2.60;;
46589;SDS011;32313;48.722;9.362;2023-05-10T05:57:56;4.00;;;2.80;;
46589;SDS011;32313;48.722;9.362;2023-05-10T06:00:22;3.20;;;2.90;;
46589;SDS011;32313;48.722;9.362;2023-05-10T06:02:48;3.93;;;3.20;;
46589;SDS011;32313;48.722;9.362;2023-05-10T06:05:14;3.47;;;3.13;;
46589;SDS011;32313;48.722;9.362;2023-05-10T06:07:40;3.17;;;2.83;;
46589;SDS011;32313;48.722;9.362;2023-05-10T06:10:08;3.10;;;2.80;;
46589;SDS011;32313;48.722;9.362;2023-05-10T06:12:35;3.20;;;2.90;;
46589;SDS011;32313;48.722;9.362;2023-05-10T06:15:01;3.30;;;3.00;;
46589;SDS011;32313;48.722;9.362;2023-05-10T06:17:28;3.00;;;2.80;;
46589;SDS011;32313;48.722;9.362;2023-05-10T06:19:53;3.43;;;3.13;;
46589;SDS011;32313;48.722;9.362;2023-05-10T06:22:19;3.23;;;2.93;;
46589;SDS011;32313;48.722;9.362;2023-05-10T06:24:46;4.97;;;2.83;;
46589;SDS011;32313;48.722;9.362;2023-05-10T06:27:12;2.53;;;2.33;;
46589;SDS011;32313;48.722;9.362;2023-05-10T06:29:38;2.67;;;2.47;;
46589;SDS011;32313;48.722;9.362;2023-05-10T06:32:04;2.70;;;2.50;;
46589;SDS011;32313;48.722;9.362;2023-05-10T06:34:30;3.67;;;2.53;;
46589;SDS011;32313;48.722;9.362;2023-05-10T06:36:57;2.53;;;2.33;;
46589;SDS011;32313;48.722;9.362;2023-05-10T06:39:23;2.47;;;2.27;;
46589;SDS011;32313;48.722;9.362;2023-05-10T06:41:48;3.70;;;2.67;;
46589;SDS011;32313;48.722;9.362;2023-05-10T06:44:14;2.47;;;2.37;;
46589;SDS011;32313;48.722;9.362;2023-05-10T06:46:39;2.40;;;2.30;;
46589;SDS011;32313;48.722;9.362;2023-05-10T06:49:06;2.53;;;2.33;;
46589;SDS011;32313;48.722;9.362;2023-05-10T06:51:32;2.63;;;2.40;;
46589;SDS011;32313;48.722;9.362;2023-05-10T06:53:58;2.70;;;2.50;;
46589;SDS011;32313;48.722;9.362;2023-05-10T06:56:23;3.00;;;2.40;;
46589;SDS011;32313;48.722;9.362;2023-05-10T06:58:49;2.60;;;2.40;;
46589;SDS011;32313;48.722;9.362;2023-05-10T07:01:15;3.70;;;2.60;;
46589;SDS011;32313;48.722;9.362;2023-05-10T07:03:40;3.63;;;2.50;;
46589;SDS011;32313;48.722;9.362;2023-05-10T07:06:06;3.00;;;2.67;;
46589;SDS011;32313;48.722;9.362;2023-05-10T07:08:35;2.47;;;2.27;;
46589;SDS011;32313;48.722;9.362;2023-05-10T07:13:28;2.77;;;2.57;;
46589;SDS011;32313;48.722;9.362;2023-05-10T07:15:57;2.63;;;2.43;;
46589;SDS011;32313;48.722;9.362;2023-05-10T07:18:25;2.40;;;2.30;;
46589;SDS011;32313;48.722;9.362;2023-05-10T07:20:50;2.80;;;2.47;;
46589;SDS011;32313;48.722;9.362;2023-05-10T07:23:16;3.60;;;2.60;;
46589;SDS011;32313;48.722;9.362;2023-05-10T07:25:46;2.70;;;2.50;;
46589;SDS011;32313;48.722;9.362;2023-05-10T07:28:13;3.60;;;2.60;;
46589;SDS011;32313;48.722;9.362;2023-05-10T07:30:40;3.27;;;2.47;;
46589;SDS011;32313;48.722;9.362;2023-05-10T07:33:06;2.63;;;2.43;;
46589;SDS011;32313;48.722;9.362;2023-05-10T07:35:34;3.33;;;2.70;;
46589;SDS011;32313;48.722;9.362;2023-05-10T07:37:59;2.83;;;2.50;;
46589;SDS011;32313;48.722;9.362;2023-05-10T07:40:25;2.73;;;2.30;;
46589;SDS011;32313;48.722;9.362;2023-05-10T07:42:51;5.03;;;2.33;;
46589;SDS011;32313;48.722;9.362;2023-05-10T07:45:17;2.20;;;2.00;;
46589;SDS011;32313;48.722;9.362;2023-05-10T07:47:43;2.93;;;2.60;;
46589;SDS011;32313;48.722;9.362;2023-05-10T07:50:09;2.53;;;2.40;;
46589;SDS011;32313;48.722;9.362;2023-05-10T07:52:35;3.20;;;2.20;;
46589;SDS011;32313;48.722;9.362;2023-05-10T07:55:00;2.40;;;2.20;;
46589;SDS011;32313;48.722;9.362;2023-05-10T07:57:26;2.40;;;2.10;;
46589;SDS011;32313;48.722;9.362;2023-05-10T07:59:52;2.40;;;1.97;;
46589;SDS011;32313;48.722;9.362;2023-05-10T08:02:17;2.00;;;1.90;;
46589;SDS011;32313;48.722;9.362;2023-05-10T08:04:43;3.17;;;2.00;;
46589;SDS011;32313;48.722;9.362;2023-05-10T08:07:09;2.33;;;2.10;;
46589;SDS011;32313;48.722;9.362;2023-05-10T08:09:51;2.20;;;2.00;;
46589;SDS011;32313;48.722;9.362;2023-05-10T08:12:16;4.17;;;2.30;;
46589;SDS011;32313;48.722;9.362;2023-05-10T08:14:42;2.37;;;2.17;;
46589;SDS011;32313;48.722;9.362;2023-05-10T08:17:08;6.67;;;2.63;;
46589;SDS011;32313;48.722;9.362;2023-05-10T08:19:33;4.20;;;2.17;;
46589;SDS011;32313;48.722;9.362;2023-05-10T08:21:59;2.27;;;2.00;;
46589;SDS011;32313;48.722;9.362;2023-05-10T08:24:25;2.67;;;2.27;;
46589;SDS011;32313;48.722;9.362;2023-05-10T08:26:51;2.17;;;1.90;;
46589;SDS011;32313;48.722;9.362;2023-05-10T08:29:17;2.37;;;2.00;;
46589;SDS011;32313;48.722;9.362;2023-05-10T08:31:43;2.47;;;1.80;;
46589;SDS011;32313;48.722;9.362;2023-05-10T08:34:08;1.80;;;1.70;;
46589;SDS011;32313;48.722;9.362;2023-05-10T08:36:34;1.73;;;1.63;;
46589;SDS011;32313;48.722;9.362;2023-05-10T08:39:00;1.97;;;1.80;;
46589;SDS011;32313;48.722;9.362;2023-05-10T08:41:25;1.77;;;1.67;;
46589;SDS011;32313;48.722;9.362;2023-05-10T08:43:54;2.07;;;1.83;;
46589;SDS011;32313;48.722;9.362;2023-05-10T08:46:21;2.17;;;1.80;;
46589;SDS011;32313;48.722;9.362;2023-05-10T08:48:48;2.20;;;1.90;;
46589;SDS011;32313;48.722;9.362;2023-05-10T08:51:17;3.40;;;2.17;;
46589;SDS011;32313;48.722;9.362;2023-05-10T08:53:44;1.90;;;1.63;;
46589;SDS011;32313;48.722;9.362;2023-05-10T08:56:10;2.50;;;1.87;;
46589;SDS011;32313;48.722;9.362;2023-05-10T08:58:36;1.80;;;1.70;;
46589;SDS011;32313;48.722;9.362;2023-05-10T09:01:03;1.80;;;1.70;;
46589;SDS011;32313;48.722;9.362;2023-05-10T09:03:30;2.87;;;1.70;;
46589;SDS011;32313;48.722;9.362;2023-05-10T09:05:56;3.73;;;1.70;;
46589;SDS011;32313;48.722;9.362;2023-05-10T09:08:25;2.50;;;1.60;;
46589;SDS011;32313;48.722;9.362;2023-05-10T09:10:51;2.40;;;1.50;;
46589;SDS011;32313;48.722;9.362;2023-05-10T09:13:18;1.97;;;1.60;;
46589;SDS011;32313;48.722;9.362;2023-05-10T09:15:45;2.50;;;1.80;;
46589;SDS011;32313;48.722;9.362;2023-05-10T09:18:13;1.83;;;1.60;;
46589;SDS011;32313;48.722;9.362;2023-05-10T09:20:39;3.60;;;1.60;;
46589;SDS011;32313;48.722;9.362;2023-05-10T09:23:05;2.33;;;1.50;;
46589;SDS011;32313;48.722;9.362;2023-05-10T09:25:31;3.63;;;1.63;;
46589;SDS011;32313;48.722;9.362;2023-05-10T09:27:58;1.50;;;1.40;;
46589;SDS011;32313;48.722;9.362;2023-05-10T09:30:29;1.77;;;1.67;;
46589;SDS011;32313;48.722;9.362;2023-05-10T09:32:56;1.90;;;1.80;;
46589;SDS011;32313;48.722;9.362;2023-05-10T09:35:23;1.70;;;1.60;;
46589;SDS011;32313;48.722;9.362;2023-05-10T09:37:51;2.30;;;1.90;;
46589;SDS011;32313;48.722;9.362;2023-05-10T09:40:22;4.67;;;2.43;;
46589;SDS011;32313;48.722;9.362;2023-05-10T09:42:53;3.43;;;2.17;;
46589;SDS011;32313;48.722;9.362;2023-05-10T09:45:28;2.20;;;2.10;;
46589;SDS011;32313;48.722;9.362;2023-05-10T09:47:54;2.60;;;2.40;;
46589;SDS011;32313;48.722;9.362;2023-05-10T09:50:21;2.77;;;2.57;;
46589;SDS011;32313;48.722;9.362;2023-05-10T09:52:47;2.73;;;2.30;;
46589;SDS011;32313;48.722;9.362;2023-05-10T09:55:21;2.73;;;2.47;;
46589;SDS011;32313;48.722;9.362;2023-05-10T09:57:48;2.50;;;2.30;;
46589;SDS011;32313;48.722;9.362;2023-05-10T10:00:23;2.80;;;2.60;;
46589;SDS011;32313;48.722;9.362;2023-05-10T10:02:55;3.67;;;2.50;;
46589;SDS011;32313;48.722;9.362;2023-05-10T10:05:30;2.17;;;2.07;;
46589;SDS011;32313;48.722;9.362;2023-05-10T10:07:56;2.70;;;2.50;;
46589;SDS011;32313;48.722;9.362;2023-05-10T10:10:26;2.57;;;2.40;;
46589;SDS011;32313;48.722;9.362;2023-05-10T10:12:53;3.63;;;2.80;;
46589;SDS011;32313;48.722;9.362;2023-05-10T10:15:23;2.70;;;2.50;;
46589;SDS011;32313;48.722;9.362;2023-05-10T10:17:49;2.80;;;2.60;;
46589;SDS011;32313;48.722;9.362;2023-05-10T10:20:16;3.23;;;2.30;;
46589;SDS011;32313;48.722;9.362;2023-05-10T10:22:43;2.80;;;2.10;;
46589;SDS011;32313;48.722;9.362;2023-05-10T10:25:10;2.00;;;1.90;;
46589;SDS011;32313;48.722;9.362;2023-05-10T10:27:45;2.67;;;2.20;;
46589;SDS011;32313;48.722;9.362;2023-05-10T10:35:38;1.90;;;1.80;;
46589;SDS011;32313;48.722;9.362;2023-05-10T10:38:07;1.70;;;1.60;;
46589;SDS011;32313;48.722;9.362;2023-05-10T10:40:33;1.60;;;1.50;;
46589;SDS011;32313;48.722;9.362;2023-05-10T10:43:32;2.20;;;1.63;;
46589;SDS011;32313;48.722;9.362;2023-05-10T10:49:08;1.40;;;1.30;;
46589;SDS011;32313;48.722;9.362;2023-05-10T10:51:38;1.60;;;1.50;;
46589;SDS011;32313;48.722;9.362;2023-05-10T10:54:10;4.40;;;1.50;;
46589;SDS011;32313;48.722;9.362;2023-05-10T10:56:36;1.60;;;1.47;;
46589;SDS011;32313;48.722;9.362;2023-05-10T10:59:02;1.93;;;1.40;;
46589;SDS011;32313;48.722;9.362;2023-05-10T11:01:34;1.70;;;1.60;;
46589;SDS011;32313;48.722;9.362;2023-05-10T11:06:32;2.07;;;1.43;;
46589;SDS011;32313;48.722;9.362;2023-05-10T11:09:06;1.50;;;1.40;;
46589;SDS011;32313;48.722;9.362;2023-05-10T11:11:33;1.60;;;1.50;;
46589;SDS011;32313;48.722;9.362;2023-05-10T11:14:03;1.50;;;1.40;;
46589;SDS011;32313;48.722;9.362;2023-05-10T11:16:40;3.57;;;1.60;;
46589;SDS011;32313;48.722;9.362;2023-05-10T11:19:11;1.50;;;1.40;;
46589;SDS011;32313;48.722;9.362;2023-05-10T11:24:20;3.03;;;1.67;;
46589;SDS011;32313;48.722;9.362;2023-05-10T11:26:49;1.53;;;1.30;;
46589;SDS011;32313;48.722;9.362;2023-05-10T11:29:15;2.00;;;1.67;;
46589;SDS011;32313;48.722;9.362;2023-05-10T11:31:44;2.10;;;1.40;;
46589;SDS011;32313;48.722;9.362;2023-05-10T11:34:11;1.57;;;1.47;;
46589;SDS011;32313;48.722;9.362;2023-05-10T11:36:50;1.93;;;1.80;;
46589;SDS011;32313;48.722;9.362;2023-05-10T11:39:16;3.33;;;1.77;;
46589;SDS011;32313;48.722;9.362;2023-05-10T11:41:42;3.23;;;1.57;;
46589;SDS011;32313;48.722;9.362;2023-05-10T11:44:08;1.63;;;1.53;;
46589;SDS011;32313;48.722;9.362;2023-05-10T11:46:34;1.60;;;1.50;;
46589;SDS011;32313;48.722;9.362;2023-05-10T11:49:01;2.10;;;1.90;;
46589;SDS011;32313;48.722;9.362;2023-05-10T11:51:29;1.73;;;1.63;;
46589;SDS011;32313;48.722;9.362;2023-05-10T11:53:58;2.27;;;2.17;;
46589;SDS011;32313;48.722;9.362;2023-05-10T11:56:24;3.00;;;1.87;;
46589;SDS011;32313;48.722;9.362;2023-05-10T11:58:52;1.87;;;1.77;;
46589;SDS011;32313;48.722;9.362;2023-05-10T12:01:22;4.13;;;2.57;;
46589;SDS011;32313;48.722;9.362;2023-05-10T12:03:50;3.77;;;2.20;;
46589;SDS011;32313;48.722;9.362;2023-05-10T12:06:17;1.90;;;1.80;;
46589;SDS011;32313;48.722;9.362;2023-05-10T12:08:44;3.17;;;2.20;;
46589;SDS011;32313;48.722;9.362;2023-05-10T12:11:11;4.37;;;2.20;;
46589;SDS011;32313;48.722;9.362;2023-05-10T12:13:41;2.77;;;2.10;;
46589;SDS011;32313;48.722;9.362;2023-05-10T12:16:18;4.43;;;2.20;;
46589;SDS011;32313;48.722;9.362;2023-05-10T12:18:48;2.30;;;2.10;;
46589;SDS011;32313;48.722;9.362;2023-05-10T12:21:15;3.87;;;1.97;;
46589;SDS011;32313;48.722;9.362;2023-05-10T12:23:42;3.93;;;2.20;;
46589;SDS011;32313;48.722;9.362;2023-05-10T12:26:10;2.63;;;2.43;;
46589;SDS011;32313;48.722;9.362;2023-05-10T12:28:36;2.40;;;2.03;;
46589;SDS011;32313;48.722;9.362;2023-05-10T12:31:02;4.23;;;2.53;;
46589;SDS011;32313;48.722;9.362;2023-05-10T12:33:35;3.40;;;2.57;;
46589;SDS011;32313;48.722;9.362;2023-05-10T12:36:09;2.80;;;2.60;;
46589;SDS011;32313;48.722;9.362;2023-05-10T12:38:36;6.53;;;2.70;;
46589;SDS011;32313;48.722;9.362;2023-05-10T12:41:04;3.67;;;3.17;;
46589;SDS011;32313;48.722;9.362;2023-05-10T12:43:38;4.73;;;2.97;;
46589;SDS011;32313;48.722;9.362;2023-05-10T12:46:08;3.00;;;2.43;;
46589;SDS011;32313;48.722;9.362;2023-05-10T12:48:35;2.70;;;2.50;;
46589;SDS011;32313;48.722;9.362;2023-05-10T12:51:02;4.90;;;2.77;;
46589;SDS011;32313;48.722;9.362;2023-05-10T12:53:28;3.90;;;2.33;;
46589;SDS011;32313;48.722;9.362;2023-05-10T12:55:54;3.93;;;2.80;;
46589;SDS011;32313;48.722;9.362;2023-05-10T12:58:21;4.43;;;2.40;;
46589;SDS011;32313;48.722;9.362;2023-05-10T13:00:46;4.07;;;2.53;;
46589;SDS011;32313;48.722;9.362;2023-05-10T13:03:12;3.73;;;2.60;;
46589;SDS011;32313;48.722;9.362;2023-05-10T13:05:38;2.73;;;2.47;;
46589;SDS011;32313;48.722;9.362;2023-05-10T13:08:04;4.63;;;2.60;;
46589;SDS011;32313;48.722;9.362;2023-05-10T13:10:30;2.97;;;2.67;;
46589;SDS011;32313;48.722;9.362;2023-05-10T13:12:56;3.20;;;2.90;;
46589;SDS011;32313;48.722;9.362;2023-05-10T13:15:23;3.30;;;2.60;;
46589;SDS011;32313;48.722;9.362;2023-05-10T13:17:48;5.27;;;2.73;;
46589;SDS011;32313;48.722;9.362;2023-05-10T13:20:14;3.07;;;2.83;;
46589;SDS011;32313;48.722;9.362;2023-05-10T13:22:41;4.97;;;3.93;;
46589;SDS011;32313;48.722;9.362;2023-05-10T13:25:08;5.70;;;4.30;;
46589;SDS011;32313;48.722;9.362;2023-05-10T13:27:34;7.77;;;5.10;;
46589;SDS011;32313;48.722;9.362;2023-05-10T13:30:00;8.43;;;5.73;;
46589;SDS011;32313;48.722;9.362;2023-05-10T13:32:26;8.83;;;6.20;;
46589;SDS011;32313;48.722;9.362;2023-05-10T13:34:52;8.13;;;5.40;;
46589;SDS011;32313;48.722;9.362;2023-05-10T13:37:17;5.50;;;4.37;;
46589;SDS011;32313;48.722;9.362;2023-05-10T13:39:43;3.80;;;3.33;;
46589;SDS011;32313;48.722;9.362;2023-05-10T13:42:09;3.10;;;2.80;;
46589;SDS011;32313;48.722;9.362;2023-05-10T13:44:34;3.53;;;2.50;;
46589;SDS011;32313;48.722;9.362;2023-05-10T13:47:01;5.83;;;2.50;;
46589;SDS011;32313;48.722;9.362;2023-05-10T13:49:26;2.87;;;2.27;;
46589;SDS011;32313;48.722;9.362;2023-05-10T13:51:52;3.97;;;2.30;;
46589;SDS011;32313;48.722;9.362;2023-05-10T13:54:18;3.50;;;2.10;;
46589;SDS011;32313;48.722;9.362;2023-05-10T13:56:45;3.70;;;2.23;;
46589;SDS011;32313;48.722;9.362;2023-05-10T13:59:12;2.97;;;2.13;;
46589;SDS011;32313;48.722;9.362;2023-05-10T14:01:39;6.27;;;1.93;;
46589;SDS011;32313;48.722;9.362;2023-05-10T14:04:06;7.33;;;2.43;;
46589;SDS011;32313;48.722;9.362;2023-05-10T14:06:35;3.97;;;2.23;;
46589;SDS011;32313;48.722;9.362;2023-05-10T14:09:06;3.77;;;2.23;;
46589;SDS011;32313;48.722;9.362;2023-05-10T14:11:32;3.33;;;2.30;;
46589;SDS011;32313;48.722;9.362;2023-05-10T14:13:58;4.83;;;2.57;;
46589;SDS011;32313;48.722;9.362;2023-05-10T14:16:23;4.53;;;2.30;;
46589;SDS011;32313;48.722;9.362;2023-05-10T14:18:49;4.57;;;2.50;;
46589;SDS011;32313;48.722;9.362;2023-05-10T14:21:15;5.20;;;2.30;;
46589;SDS011;32313;48.722;9.362;2023-05-10T14:23:40;3.17;;;2.10;;
46589;SDS011;32313;48.722;9.362;2023-05-10T14:26:06;3.77;;;2.10;;
46589;SDS011;32313;48.722;9.362;2023-05-10T14:28:32;5.23;;;2.30;;
46589;SDS011;32313;48.722;9.362;2023-05-10T14:30:58;5.10;;;2.00;;
46589;SDS011;32313;48.722;9.362;2023-05-10T14:33:24;3.13;;;2.10;;
46589;SDS011;32313;48.722;9.362;2023-05-10T14:35:50;7.33;;;2.53;;
46589;SDS011;32313;48.722;9.362;2023-05-10T14:38:15;3.03;;;2.40;;
46589;SDS011;32313;48.722;9.362;2023-05-10T14:40:41;3.73;;;2.43;;
46589;SDS011;32313;48.722;9.362;2023-05-10T14:43:08;3.20;;;2.70;;
46589;SDS011;32313;48.722;9.362;2023-05-10T14:45:33;2.97;;;2.30;;
46589;SDS011;32313;48.722;9.362;2023-05-10T14:47:59;5.47;;;1.83;;
46589;SDS011;32313;48.722;9.362;2023-05-10T14:50:25;2.83;;;2.13;;
46589;SDS011;32313;48.722;9.362;2023-05-10T14:52:51;3.23;;;2.30;;
46589;SDS011;32313;48.722;9.362;2023-05-10T14:55:16;2.53;;;1.90;;
46589;SDS011;32313;48.722;9.362;2023-05-10T14:57:42;4.47;;;1.97;;
46589;SDS011;32313;48.722;9.362;2023-05-10T15:00:09;3.60;;;2.20;;
46589;SDS011;32313;48.722;9.362;2023-05-10T15:02:35;3.53;;;2.00;;
46589;SDS011;32313;48.722;9.362;2023-05-10T15:05:01;4.87;;;2.20;;
46589;SDS011;32313;48.722;9.362;2023-05-10T15:07:27;2.13;;;1.93;;
46589;SDS011;32313;48.722;9.362;2023-05-10T15:09:53;4.63;;;2.20;;
46589;SDS011;32313;48.722;9.362;2023-05-10T15:12:19;1.90;;;1.63;;
46589;SDS011;32313;48.722;9.362;2023-05-10T15:14:45;5.30;;;2.40;;
46589;SDS011;32313;48.722;9.362;2023-05-10T15:17:11;2.53;;;1.97;;
46589;SDS011;32313;48.722;9.362;2023-05-10T15:19:37;3.43;;;1.90;;